Time;durP1;ratioP1;P1;durP2;ratioP2;P2;SDS_P1;SDS_P2;PMS_P1;PMS_P2;Temp;Humidity;BMP_temperature;BMP_pressure;BME280_temperature;BME280_humidity;BME280_pressure;Samples;Min_cycle;Max_cycle;Signal;HPM_P1;HPM_P2
2023/10/16 00:01:09;;;;;;;17.38;3.28;;;;;;;;;;5047642;28;20906;-76
2023/10/16 00:03:51;;;;;;;17.92;3.63;;;;;;;;;;5011643;28;20983;-78
2023/10/16 00:06:19;;;;;;;19.77;3.20;;;;;;;;;;5011919;28;20915;-78
2023/10/16 00:08:49;;;;;;;19.30;3.70;;;;;;;;;;5011588;28;20744;-77
2023/10/16 00:11:17;;;;;;;17.10;3.53;;;;;;;;;;5037461;28;20939;-77
2023/10/16 00:13:44;;;;;;;19.03;3.70;;;;;;;;;;5014393;28;20966;-76
2023/10/16 00:16:16;;;;;;;19.00;2.97;;;;;;;;;;5013342;28;20508;-76
2023/10/16 00:18:46;;;;;;;21.73;4.10;;;;;;;;;;5028455;28;20428;-76
2023/10/16 00:21:13;;;;;;;18.55;3.83;;;;;;;;;;5026001;28;21003;-78
2023/10/16 00:23:41;;;;;;;20.25;3.80;;;;;;;;;;5014633;28;20427;-78
2023/10/16 00:26:10;;;;;;;19.90;3.63;;;;;;;;;;5015205;28;20423;-76
2023/10/16 00:28:52;;;;;;;19.25;3.80;;;;;;;;;;5042896;28;21133;-77
2023/10/16 00:31:22;;;;;;;19.20;3.90;;;;;;;;;;5022229;28;20945;-77
2023/10/16 00:33:51;;;;;;;18.67;3.55;;;;;;;;;;5013346;28;20411;-75
2023/10/16 00:36:18;;;;;;;18.02;3.40;;;;;;;;;;5015103;28;20528;-78
2023/10/16 00:38:51;;;;;;;17.88;3.67;;;;;;;;;;5028033;28;20430;-77
2023/10/16 00:41:23;;;;;;;18.48;3.95;;;;;;;;;;5011858;28;20412;-75
2023/10/16 00:43:53;;;;;;;18.23;3.47;;;;;;;;;;5024398;28;20433;-76
2023/10/16 00:46:29;;;;;;;18.20;3.70;;;;;;;;;;5012452;28;20920;-76
2023/10/16 00:49:05;;;;;;;17.50;3.80;;;;;;;;;;5043753;28;20408;-75
2023/10/16 00:51:41;;;;;;;18.95;4.07;;;;;;;;;;5009664;28;20494;-77
2023/10/16 00:54:18;;;;;;;18.50;3.47;;;;;;;;;;5011459;28;20970;-79
2023/10/16 00:56:47;;;;;;;24.65;5.07;;;;;;;;;;5044976;28;20540;-77
2023/10/16 00:59:17;;;;;;;18.05;3.53;;;;;;;;;;5012971;28;20448;-79
2023/10/16 01:01:46;;;;;;;20.17;3.60;;;;;;;;;;5019711;28;20408;-80
2023/10/16 01:04:20;;;;;;;18.27;3.30;;;;;;;;;;5028135;28;20498;-79
2023/10/16 01:06:51;;;;;;;20.73;3.77;;;;;;;;;;4997892;28;20420;-76
2023/10/16 01:12:36;;;;;;;19.48;3.70;;;;;;;;;;4900646;28;20437;-78
2023/10/16 01:15:51;;;;;;;18.52;3.85;;;;;;;;;;5010354;28;20506;-78
2023/10/16 01:19:00;;;;;;;20.27;3.60;;;;;;;;;;4990453;28;20413;-79
2023/10/16 01:21:36;;;;;;;18.73;4.07;;;;;;;;;;4998917;28;20842;-78
2023/10/16 01:30:55;;;;;;;18.80;3.80;;;;;;;;;;5000057;28;20414;-75
2023/10/16 01:34:01;;;;;;;19.30;3.97;;;;;;;;;;4970947;28;20504;-77
2023/10/16 01:37:08;;;;;;;18.25;3.70;;;;;;;;;;4989830;28;20455;-77
2023/10/16 01:39:53;;;;;;;20.70;4.30;;;;;;;;;;5021618;28;20424;-79
2023/10/16 01:46:29;;;;;;;19.90;3.90;;;;;;;;;;5012155;28;20507;-77
2023/10/16 01:49:32;;;;;;;18.17;3.88;;;;;;;;;;5007062;28;20944;-79
2023/10/16 01:52:44;;;;;;;22.02;4.10;;;;;;;;;;4988336;28;20833;-76
2023/10/16 01:55:38;;;;;;;20.07;4.20;;;;;;;;;;5002358;28;20485;-78
2023/10/16 01:58:52;;;;;;;19.88;4.13;;;;;;;;;;5006152;28;20762;-77
2023/10/16 02:01:54;;;;;;;21.42;4.03;;;;;;;;;;5007386;28;20396;-79
2023/10/16 02:04:53;;;;;;;21.25;4.65;;;;;;;;;;5010144;28;20866;-76
2023/10/16 02:15:09;;;;;;;20.47;4.30;;;;;;;;;;4914124;28;20424;-80
2023/10/16 02:18:27;;;;;;;19.40;4.07;;;;;;;;;;4966070;28;20923;-78
2023/10/16 02:21:59;;;;;;;21.25;4.00;;;;;;;;;;4962171;28;22279;-79
2023/10/16 02:25:28;;;;;;;19.00;4.00;;;;;;;;;;4979645;28;20924;-80
2023/10/16 02:28:29;;;;;;;19.75;4.72;;;;;;;;;;4923803;28;20432;-77
2023/10/16 02:31:18;;;;;;;21.38;4.20;;;;;;;;;;4940739;28;20433;-77
2023/10/16 02:34:12;;;;;;;20.30;4.25;;;;;;;;;;4963713;28;20432;-77
2023/10/16 02:37:20;;;;;;;19.35;4.45;;;;;;;;;;4942397;28;20448;-78
2023/10/16 02:40:32;;;;;;;17.90;3.70;;;;;;;;;;4921517;28;20420;-78
2023/10/16 02:44:01;;;;;;;18.25;3.90;;;;;;;;;;4955928;28;20778;-77
2023/10/16 02:46:49;;;;;;;21.58;4.20;;;;;;;;;;4981569;28;20933;-77
2023/10/16 02:49:56;;;;;;;18.67;4.18;;;;;;;;;;5029495;28;20432;-76
2023/10/16 02:53:21;;;;;;;20.77;4.20;;;;;;;;;;5019919;28;20555;-77
2023/10/16 02:56:44;;;;;;;19.95;4.45;;;;;;;;;;5016258;28;20416;-78
2023/10/16 02:59:50;;;;;;;18.65;4.30;;;;;;;;;;5002607;28;20425;-79
2023/10/16 03:02:22;;;;;;;21.23;4.60;;;;;;;;;;5018887;28;20423;-79
2023/10/16 03:08:49;;;;;;;18.15;4.22;;;;;;;;;;5044124;28;20444;-79
2023/10/16 03:11:57;;;;;;;20.65;3.70;;;;;;;;;;5017175;28;20432;-80
2023/10/16 03:15:15;;;;;;;21.48;4.97;;;;;;;;;;4983300;28;20504;-79
2023/10/16 03:18:16;;;;;;;22.17;4.65;;;;;;;;;;4999220;28;20416;-78
2023/10/16 03:21:57;;;;;;;21.13;5.10;;;;;;;;;;5013240;28;20407;-78
2023/10/16 03:25:24;;;;;;;19.15;4.70;;;;;;;;;;4962782;28;20466;-79
2023/10/16 03:28:21;;;;;;;18.70;4.10;;;;;;;;;;5015445;28;20766;-79
2023/10/16 03:31:08;;;;;;;19.88;4.35;;;;;;;;;;5002408;28;20470;-79
2023/10/16 03:34:13;;;;;;;21.70;5.10;;;;;;;;;;5014386;28;20503;-79
2023/10/16 03:37:06;;;;;;;18.60;3.88;;;;;;;;;;5015882;28;20412;-79
2023/10/16 03:40:04;;;;;;;21.67;4.10;;;;;;;;;;4969407;28;20437;-78
2023/10/16 03:43:13;;;;;;;19.23;4.30;;;;;;;;;;5010876;28;20417;-77
2023/10/16 03:49:00;;;;;;;21.13;4.53;;;;;;;;;;5019534;28;20420;-79
2023/10/16 03:51:50;;;;;;;19.60;4.55;;;;;;;;;;5028359;28;20420;-79
2023/10/16 03:57:55;;;;;;;20.58;4.38;;;;;;;;;;5046377;28;20432;-79
2023/10/16 04:00:26;;;;;;;21.45;4.78;;;;;;;;;;5016451;28;20421;-79
2023/10/16 04:03:18;;;;;;;21.00;4.75;;;;;;;;;;5043873;28;20413;-79
2023/10/16 04:06:08;;;;;;;21.50;4.78;;;;;;;;;;5042897;28;20437;-79
2023/10/16 04:08:55;;;;;;;22.80;5.00;;;;;;;;;;5015650;28;20427;-78
2023/10/16 04:11:48;;;;;;;22.92;5.63;;;;;;;;;;5004473;28;20430;-79
2023/10/16 04:14:18;;;;;;;21.35;5.00;;;;;;;;;;5005588;28;20428;-79
2023/10/16 04:16:54;;;;;;;22.27;5.38;;;;;;;;;;4993664;28;20515;-79
2023/10/16 04:21:51;;;;;;;19.25;4.60;;;;;;;;;;5026482;28;20421;-79
2023/10/16 04:24:30;;;;;;;19.43;4.90;;;;;;;;;;5011906;28;20828;-80
2023/10/16 04:32:39;;;;;;;21.43;4.60;;;;;;;;;;5014676;28;20413;-79
2023/10/16 04:37:55;;;;;;;20.50;5.17;;;;;;;;;;5043871;28;20992;-81
2023/10/16 04:42:02;;;;;;;20.40;4.90;;;;;;;;;;5008655;28;20895;-79
2023/10/16 04:43:37;;;;;;;22.42;5.35;;;;;;;;;;5010274;28;20499;-80
2023/10/16 04:46:19;;;;;;;18.97;4.80;;;;;;;;;;5025805;28;20504;-81
2023/10/16 04:48:51;;;;;;;21.55;4.82;;;;;;;;;;5012633;28;20412;-78
2023/10/16 04:51:26;;;;;;;22.10;5.53;;;;;;;;;;5024512;28;20524;-78
2023/10/16 04:54:27;;;;;;;20.95;5.38;;;;;;;;;;5036940;28;20428;-81
2023/10/16 04:57:07;;;;;;;22.07;6.13;;;;;;;;;;5027211;28;20413;-79
2023/10/16 05:02:40;;;;;;;22.65;7.22;;;;;;;;;;4990036;28;20909;-80
2023/10/16 05:08:13;;;;;;;22.38;6.93;;;;;;;;;;5024428;28;20463;-82
2023/10/16 05:11:23;;;;;;;21.80;6.40;;;;;;;;;;5011551;28;20495;-80
2023/10/16 05:16:48;;;;;;;27.63;8.07;;;;;;;;;;5003560;28;20444;-81
2023/10/16 06:14:13;;;;;;;42.97;13.43;;;;;;;;;;5010965;28;20507;-78
2023/10/16 06:16:41;;;;;;;46.03;14.68;;;;;;;;;;5010034;28;20409;-79
2023/10/16 06:19:16;;;;;;;38.13;14.70;;;;;;;;;;5026505;28;20476;-79
2023/10/16 06:21:47;;;;;;;32.33;12.13;;;;;;;;;;5009950;28;20920;-79
2023/10/16 06:24:32;;;;;;;31.90;11.50;;;;;;;;;;5025043;28;20451;-80
2023/10/16 06:27:00;;;;;;;34.30;11.68;;;;;;;;;;5010598;28;20439;-77
2023/10/16 06:29:34;;;;;;;30.90;10.15;;;;;;;;;;5011120;28;20767;-78
2023/10/16 06:32:06;;;;;;;28.08;9.50;;;;;;;;;;5009135;28;20424;-78
2023/10/16 06:34:33;;;;;;;26.77;9.13;;;;;;;;;;5042943;28;20431;-78
2023/10/16 06:37:07;;;;;;;28.90;9.82;;;;;;;;;;5009949;28;20515;-78
2023/10/16 06:39:37;;;;;;;28.95;8.52;;;;;;;;;;5025029;28;20414;-77
2023/10/16 06:42:04;;;;;;;25.70;8.60;;;;;;;;;;5008933;28;20419;-79
2023/10/16 06:44:36;;;;;;;26.98;9.50;;;;;;;;;;5007479;28;20523;-76
2023/10/16 06:47:02;;;;;;;28.35;8.38;;;;;;;;;;5009500;28;20754;-78
2023/10/16 06:49:35;;;;;;;25.20;7.95;;;;;;;;;;5009397;28;20435;-78
2023/10/16 06:52:06;;;;;;;26.70;8.50;;;;;;;;;;5012362;28;20420;-77
2023/10/16 06:54:37;;;;;;;24.95;8.70;;;;;;;;;;5015347;28;21017;-78
2023/10/16 06:57:13;;;;;;;26.42;8.18;;;;;;;;;;5013251;28;20471;-78
2023/10/16 06:59:40;;;;;;;23.10;7.57;;;;;;;;;;5029665;28;20459;-77
2023/10/16 07:02:09;;;;;;;25.80;7.50;;;;;;;;;;5014154;28;20813;-78
2023/10/16 07:04:40;;;;;;;24.88;6.63;;;;;;;;;;5014333;28;20432;-80
2023/10/16 07:07:17;;;;;;;23.40;7.32;;;;;;;;;;5029667;28;20460;-77
2023/10/16 07:09:49;;;;;;;25.40;7.47;;;;;;;;;;5012719;28;20432;-77
2023/10/16 07:12:16;;;;;;;29.70;9.17;;;;;;;;;;5014506;28;20509;-78
2023/10/16 07:14:44;;;;;;;29.00;9.25;;;;;;;;;;5029695;28;20820;-76
2023/10/16 07:17:13;;;;;;;26.63;9.27;;;;;;;;;;5013231;28;20490;-80
2023/10/16 07:19:41;;;;;;;23.25;7.38;;;;;;;;;;5013928;28;20411;-80
2023/10/16 07:22:10;;;;;;;25.30;7.35;;;;;;;;;;5029333;28;20845;-77
2023/10/16 07:24:37;;;;;;;25.55;8.68;;;;;;;;;;5033298;28;20427;-78
2023/10/16 07:27:12;;;;;;;27.37;9.13;;;;;;;;;;5001189;28;20480;-79
2023/10/16 07:29:39;;;;;;;27.45;9.55;;;;;;;;;;5012860;28;20607;-79
2023/10/16 07:32:08;;;;;;;25.83;9.60;;;;;;;;;;5012770;28;20415;-77
2023/10/16 07:34:34;;;;;;;24.38;8.30;;;;;;;;;;5044945;28;20427;-80
2023/10/16 07:37:01;;;;;;;22.17;6.68;;;;;;;;;;5008834;28;20417;-76
2023/10/16 07:39:29;;;;;;;29.13;8.20;;;;;;;;;;5012252;28;20420;-79
2023/10/16 07:41:56;;;;;;;23.95;7.10;;;;;;;;;;5013734;28;20473;-76
2023/10/16 07:44:26;;;;;;;23.52;7.10;;;;;;;;;;5017390;28;20417;-81
2023/10/16 07:46:53;;;;;;;25.88;7.95;;;;;;;;;;5027525;28;20464;-77
2023/10/16 07:49:25;;;;;;;25.02;8.35;;;;;;;;;;5028756;28;20491;-76
2023/10/16 07:51:56;;;;;;;29.27;8.93;;;;;;;;;;5042508;28;20416;-76
2023/10/16 07:54:24;;;;;;;22.40;7.00;;;;;;;;;;5011677;28;21136;-76
2023/10/16 07:56:52;;;;;;;25.20;7.93;;;;;;;;;;5012311;28;20420;-77
2023/10/16 07:59:19;;;;;;;24.45;6.75;;;;;;;;;;5012186;28;20869;-76
2023/10/16 08:01:52;;;;;;;24.35;7.00;;;;;;;;;;5013504;28;20420;-78
2023/10/16 08:04:19;;;;;;;21.97;6.20;;;;;;;;;;5040656;28;20424;-79
2023/10/16 08:06:47;;;;;;;22.57;6.40;;;;;;;;;;5001316;28;20425;-76
2023/10/16 08:11:58;;;;;;;21.98;6.00;;;;;;;;;;5024602;28;20414;-75
2023/10/16 08:14:26;;;;;;;23.30;6.40;;;;;;;;;;5013489;28;20547;-78
2023/10/16 08:17:13;;;;;;;28.50;6.65;;;;;;;;;;5035171;28;20444;-77
2023/10/16 08:19:40;;;;;;;24.50;7.63;;;;;;;;;;5009507;28;20503;-77
2023/10/16 08:22:08;;;;;;;23.40;6.50;;;;;;;;;;4996476;28;20483;-77
2023/10/16 08:24:43;;;;;;;23.70;6.40;;;;;;;;;;5015040;28;20478;-78
2023/10/16 08:27:19;;;;;;;22.77;7.10;;;;;;;;;;5043908;28;20889;-77
2023/10/16 08:29:54;;;;;;;22.95;6.97;;;;;;;;;;5010428;28;20413;-78
2023/10/16 08:35:10;;;;;;;27.75;7.88;;;;;;;;;;5011284;28;20429;-77
2023/10/16 08:37:40;;;;;;;24.98;7.53;;;;;;;;;;5012378;28;20415;-78
2023/10/16 08:40:20;;;;;;;25.15;7.97;;;;;;;;;;5011348;28;20786;-78
2023/10/16 08:42:50;;;;;;;25.50;8.38;;;;;;;;;;4998426;28;20897;-76
2023/10/16 08:45:23;;;;;;;24.67;7.40;;;;;;;;;;4992864;28;20406;-78
2023/10/16 08:47:51;;;;;;;23.27;7.00;;;;;;;;;;5009074;28;20766;-78
2023/10/16 08:50:20;;;;;;;25.15;7.15;;;;;;;;;;5006460;28;20503;-77
2023/10/16 08:52:50;;;;;;;26.15;7.70;;;;;;;;;;5009604;28;20404;-77
2023/10/16 08:55:17;;;;;;;25.05;7.00;;;;;;;;;;5010697;28;20494;-76
2023/10/16 08:57:45;;;;;;;25.30;7.15;;;;;;;;;;5044130;28;20423;-74
2023/10/16 09:00:20;;;;;;;23.08;7.43;;;;;;;;;;4995039;28;20831;-77
2023/10/16 09:02:49;;;;;;;25.42;7.72;;;;;;;;;;5012810;28;20480;-78
2023/10/16 09:05:16;;;;;;;23.50;7.47;;;;;;;;;;5010326;28;20451;-75
2023/10/16 09:07:43;;;;;;;22.48;6.40;;;;;;;;;;5010998;28;20762;-77
2023/10/16 09:10:10;;;;;;;22.92;6.53;;;;;;;;;;5032497;28;20452;-77
2023/10/16 09:12:52;;;;;;;24.08;7.28;;;;;;;;;;5012079;28;20432;-79
2023/10/16 09:15:24;;;;;;;22.40;6.67;;;;;;;;;;5010195;28;20428;-75
2023/10/16 09:17:51;;;;;;;23.50;7.15;;;;;;;;;;5011104;28;20405;-76
2023/10/16 09:20:22;;;;;;;25.08;6.78;;;;;;;;;;5011916;28;20415;-75
2023/10/16 09:22:50;;;;;;;24.10;6.97;;;;;;;;;;5010581;28;20409;-74
2023/10/16 09:25:22;;;;;;;23.00;6.93;;;;;;;;;;5010747;28;20444;-74
2023/10/16 09:28:05;;;;;;;23.13;7.10;;;;;;;;;;5010141;28;20408;-75
2023/10/16 09:30:33;;;;;;;22.35;7.10;;;;;;;;;;5011131;28;20412;-74
2023/10/16 09:33:00;;;;;;;24.45;7.15;;;;;;;;;;5040589;28;20415;-75
2023/10/16 09:35:32;;;;;;;23.92;7.60;;;;;;;;;;5012020;28;20412;-73
2023/10/16 09:38:11;;;;;;;24.57;7.10;;;;;;;;;;5010902;28;20487;-74
2023/10/16 09:40:38;;;;;;;25.20;7.32;;;;;;;;;;5016088;28;20482;-76
2023/10/16 09:43:08;;;;;;;24.23;7.20;;;;;;;;;;5010352;28;20459;-72
2023/10/16 09:45:36;;;;;;;28.02;8.55;;;;;;;;;;5042834;28;20492;-72
2023/10/16 09:48:08;;;;;;;23.60;7.50;;;;;;;;;;5010029;28;20489;-73
2023/10/16 09:50:36;;;;;;;28.23;7.82;;;;;;;;;;5042741;28;20825;-72
2023/10/16 09:53:03;;;;;;;26.17;8.10;;;;;;;;;;5009108;28;20503;-73
2023/10/16 09:55:38;;;;;;;22.65;7.30;;;;;;;;;;5025997;28;21031;-74
2023/10/16 09:58:06;;;;;;;22.80;6.60;;;;;;;;;;5009451;28;20882;-72
2023/10/16 10:00:33;;;;;;;27.27;8.27;;;;;;;;;;5040006;28;20416;-74
2023/10/16 10:03:12;;;;;;;26.25;7.93;;;;;;;;;;5011239;28;20766;-74
2023/10/16 10:08:27;;;;;;;23.90;7.18;;;;;;;;;;5009734;28;20897;-72
2023/10/16 10:14:26;;;;;;;22.83;6.70;;;;;;;;;;5010345;28;20503;-71
2023/10/16 10:16:57;;;;;;;23.45;7.05;;;;;;;;;;5009199;28;20437;-74
2023/10/16 10:19:32;;;;;;;24.45;6.38;;;;;;;;;;5009378;28;20417;-75
2023/10/16 10:22:05;;;;;;;26.73;6.50;;;;;;;;;;5041718;28;20433;-73
2023/10/16 10:24:34;;;;;;;23.27;6.75;;;;;;;;;;5023734;28;20435;-72
2023/10/16 10:27:03;;;;;;;21.93;5.80;;;;;;;;;;5012313;28;20606;-73
2023/10/16 10:29:30;;;;;;;22.13;5.82;;;;;;;;;;5013455;28;20947;-75
2023/10/16 10:32:05;;;;;;;22.42;5.60;;;;;;;;;;5014627;28;20509;-72
2023/10/16 10:34:33;;;;;;;23.47;5.60;;;;;;;;;;5044087;28;20423;-75
2023/10/16 10:37:00;;;;;;;24.00;5.93;;;;;;;;;;5016228;28;20688;-73
2023/10/16 10:39:39;;;;;;;23.67;5.82;;;;;;;;;;5013364;28;20423;-73
2023/10/16 10:42:25;;;;;;;20.83;5.45;;;;;;;;;;5004042;28;20411;-74
2023/10/16 10:44:56;;;;;;;21.13;5.80;;;;;;;;;;5015639;28;20445;-72
2023/10/16 10:47:24;;;;;;;22.30;6.60;;;;;;;;;;5030349;28;20434;-72
2023/10/16 10:49:58;;;;;;;22.50;5.60;;;;;;;;;;5014293;28;20416;-73
2023/10/16 10:52:27;;;;;;;24.83;6.93;;;;;;;;;;5027025;28;20427;-74
2023/10/16 10:54:58;;;;;;;21.48;5.72;;;;;;;;;;5028454;28;20434;-71
2023/10/16 10:57:25;;;;;;;21.92;6.80;;;;;;;;;;5018785;28;20528;-75
2023/10/16 11:02:52;;;;;;;22.33;7.07;;;;;;;;;;5014480;28;20401;-74
2023/10/16 11:05:23;;;;;;;22.53;6.33;;;;;;;;;;5017315;28;20401;-73
2023/10/16 11:10:41;;;;;;;24.23;6.73;;;;;;;;;;5045142;28;20456;-74
2023/10/16 11:13:09;;;;;;;25.95;7.20;;;;;;;;;;5013311;28;20440;-72
2023/10/16 11:15:36;;;;;;;24.17;6.43;;;;;;;;;;5014137;28;20455;-72
2023/10/16 11:18:09;;;;;;;24.25;6.80;;;;;;;;;;5013834;28;20420;-72
2023/10/16 11:20:37;;;;;;;24.33;7.23;;;;;;;;;;5012488;28;20451;-72
2023/10/16 11:23:13;;;;;;;23.63;5.85;;;;;;;;;;5013822;28;20478;-74
2023/10/16 11:25:44;;;;;;;22.50;7.30;;;;;;;;;;5013750;28;20408;-73
2023/10/16 11:28:12;;;;;;;23.25;6.82;;;;;;;;;;4995785;28;20422;-76
2023/10/16 11:30:39;;;;;;;24.10;6.40;;;;;;;;;;5013195;28;20412;-74
2023/10/16 11:33:09;;;;;;;24.48;7.32;;;;;;;;;;5012687;28;20418;-75
2023/10/16 11:35:35;;;;;;;23.77;7.40;;;;;;;;;;5013185;28;20524;-73
2023/10/16 11:38:13;;;;;;;27.02;7.10;;;;;;;;;;5011578;28;20428;-73
2023/10/16 11:40:42;;;;;;;23.17;7.82;;;;;;;;;;5008283;28;20420;-71
2023/10/16 11:43:19;;;;;;;24.33;6.50;;;;;;;;;;5013516;28;20770;-74
2023/10/16 11:45:56;;;;;;;23.85;6.40;;;;;;;;;;5012717;28;20474;-73
2023/10/16 11:50:51;;;;;;;22.75;6.50;;;;;;;;;;5017312;28;20512;-73
2023/10/16 11:53:28;;;;;;;24.75;7.47;;;;;;;;;;4998792;28;20821;-72
2023/10/16 11:55:56;;;;;;;23.40;7.90;;;;;;;;;;5012886;28;20520;-71
2023/10/16 11:58:23;;;;;;;23.67;7.68;;;;;;;;;;5044455;28;20951;-71
2023/10/16 12:00:53;;;;;;;24.23;7.15;;;;;;;;;;5011550;28;20409;-72
2023/10/16 12:03:20;;;;;;;22.63;6.85;;;;;;;;;;5013662;28;20447;-73
2023/10/16 12:05:50;;;;;;;23.10;7.10;;;;;;;;;;5015302;28;20447;-73
2023/10/16 12:08:18;;;;;;;26.80;7.60;;;;;;;;;;5043865;28;20412;-74
2023/10/16 12:10:47;;;;;;;23.58;6.35;;;;;;;;;;5027815;28;20447;-73
2023/10/16 12:13:14;;;;;;;21.60;6.00;;;;;;;;;;5011897;28;20409;-73
2023/10/16 12:15:43;;;;;;;22.52;6.40;;;;;;;;;;5012470;28;20425;-72
2023/10/16 12:18:12;;;;;;;23.67;5.95;;;;;;;;;;5011827;28;20416;-74
2023/10/16 12:20:39;;;;;;;20.52;5.95;;;;;;;;;;5012431;28;20408;-73
2023/10/16 12:23:06;;;;;;;23.95;6.20;;;;;;;;;;5044062;28;20451;-73
2023/10/16 12:25:34;;;;;;;23.50;6.75;;;;;;;;;;5011095;28;20412;-72
2023/10/16 12:28:07;;;;;;;25.45;7.07;;;;;;;;;;5011597;28;20424;-73
2023/10/16 12:30:36;;;;;;;25.50;6.75;;;;;;;;;;5012915;28;20436;-74
2023/10/16 12:33:06;;;;;;;19.10;5.60;;;;;;;;;;5009997;28;20432;-73
2023/10/16 12:35:34;;;;;;;23.05;6.00;;;;;;;;;;5012902;28;20487;-72
2023/10/16 12:38:04;;;;;;;23.27;6.50;;;;;;;;;;5027583;28;20439;-72
2023/10/16 12:40:34;;;;;;;22.80;6.72;;;;;;;;;;5011326;28;20509;-73
2023/10/16 12:43:00;;;;;;;22.87;6.30;;;;;;;;;;5011837;28;20409;-73
2023/10/16 12:45:29;;;;;;;21.95;6.07;;;;;;;;;;5012287;28;20433;-74
2023/10/16 12:47:56;;;;;;;22.10;5.80;;;;;;;;;;5013462;28;20432;-73
2023/10/16 12:50:25;;;;;;;22.90;6.00;;;;;;;;;;5011868;28;20413;-74
2023/10/16 12:52:52;;;;;;;23.17;6.47;;;;;;;;;;5004314;28;20421;-72
2023/10/16 12:55:19;;;;;;;23.10;6.55;;;;;;;;;;5007672;28;20432;-74
2023/10/16 12:57:47;;;;;;;23.20;5.97;;;;;;;;;;4999382;28;20421;-73
2023/10/16 13:00:15;;;;;;;20.37;5.80;;;;;;;;;;5043215;28;20514;-73
2023/10/16 13:02:45;;;;;;;24.23;6.80;;;;;;;;;;5027315;28;20421;-74
2023/10/16 13:05:13;;;;;;;22.98;6.57;;;;;;;;;;5012295;28;20744;-72
2023/10/16 13:07:43;;;;;;;22.30;5.80;;;;;;;;;;5035110;28;20893;-73
2023/10/16 13:10:19;;;;;;;20.73;4.70;;;;;;;;;;5010117;28;20444;-73
2023/10/16 13:12:47;;;;;;;21.23;4.80;;;;;;;;;;5012097;28;20515;-73
2023/10/16 13:15:15;;;;;;;18.88;4.60;;;;;;;;;;5012033;28;20421;-71
2023/10/16 13:17:48;;;;;;;24.40;5.28;;;;;;;;;;5009271;28;20453;-74
2023/10/16 13:20:18;;;;;;;19.67;4.30;;;;;;;;;;5009696;28;20405;-73
2023/10/16 13:22:49;;;;;;;19.73;4.93;;;;;;;;;;5009171;28;20424;-75
2023/10/16 13:25:18;;;;;;;20.38;5.15;;;;;;;;;;5011697;28;20431;-73
2023/10/16 13:27:45;;;;;;;19.83;4.63;;;;;;;;;;5010099;28;20906;-73
2023/10/16 13:30:12;;;;;;;19.50;4.60;;;;;;;;;;5011645;28;20456;-74
2023/10/16 13:32:41;;;;;;;22.92;4.80;;;;;;;;;;5012649;28;20408;-75
2023/10/16 13:35:12;;;;;;;20.75;4.80;;;;;;;;;;5014135;28;20930;-72
2023/10/16 13:37:39;;;;;;;20.97;5.10;;;;;;;;;;5029120;28;20491;-74
2023/10/16 13:40:15;;;;;;;20.17;4.80;;;;;;;;;;5011567;28;20412;-74
2023/10/16 13:42:42;;;;;;;20.20;4.65;;;;;;;;;;4999552;28;20518;-72
2023/10/16 13:45:12;;;;;;;19.95;4.80;;;;;;;;;;5010810;28;20782;-73
2023/10/16 13:47:43;;;;;;;18.65;4.30;;;;;;;;;;5009876;28;20870;-73
2023/10/16 13:50:12;;;;;;;20.13;4.38;;;;;;;;;;5005521;28;20434;-72
2023/10/16 13:52:42;;;;;;;18.35;4.75;;;;;;;;;;5011083;28;20504;-73
2023/10/16 13:55:14;;;;;;;17.35;3.80;;;;;;;;;;5010721;28;20428;-75
2023/10/16 13:57:47;;;;;;;18.90;4.10;;;;;;;;;;5009438;28;20436;-73
2023/10/16 14:00:28;;;;;;;19.40;4.30;;;;;;;;;;5010675;28;20512;-74
2023/10/16 14:02:56;;;;;;;18.55;4.00;;;;;;;;;;5009881;28;20401;-72
2023/10/16 14:05:28;;;;;;;17.97;4.13;;;;;;;;;;5042631;28;20495;-73
2023/10/16 14:07:55;;;;;;;17.83;3.40;;;;;;;;;;5011124;28;20770;-73
2023/10/16 14:10:21;;;;;;;18.00;3.50;;;;;;;;;;5010839;28;20507;-73
2023/10/16 14:12:58;;;;;;;16.65;2.90;;;;;;;;;;5009285;28;20420;-73
2023/10/16 14:15:26;;;;;;;17.27;3.77;;;;;;;;;;5009370;28;20550;-74
2023/10/16 14:17:57;;;;;;;18.50;3.40;;;;;;;;;;5042832;28;20507;-73
2023/10/16 14:20:34;;;;;;;18.30;3.50;;;;;;;;;;5010301;28;20458;-73
2023/10/16 14:23:03;;;;;;;18.20;3.88;;;;;;;;;;5010292;28;20412;-73
2023/10/16 14:25:32;;;;;;;21.13;4.40;;;;;;;;;;4994594;28;20503;-72
2023/10/16 14:28:11;;;;;;;19.00;4.23;;;;;;;;;;5010649;28;20575;-72
2023/10/16 14:30:39;;;;;;;18.73;3.50;;;;;;;;;;5010931;28;20408;-72
2023/10/16 14:33:15;;;;;;;19.13;4.20;;;;;;;;;;5008495;28;20815;-72
2023/10/16 14:35:43;;;;;;;19.60;3.55;;;;;;;;;;5007820;28;20429;-73
2023/10/16 14:38:10;;;;;;;19.75;4.00;;;;;;;;;;5026229;28;20486;-73
2023/10/16 14:40:42;;;;;;;18.10;3.70;;;;;;;;;;5009438;28;20417;-73
2023/10/16 14:43:08;;;;;;;17.50;3.50;;;;;;;;;;5008814;28;20490;-73
2023/10/16 14:45:36;;;;;;;20.42;3.33;;;;;;;;;;5015682;28;20421;-72
2023/10/16 14:48:05;;;;;;;17.08;3.83;;;;;;;;;;5009382;28;20417;-72
2023/10/16 14:50:35;;;;;;;18.58;3.67;;;;;;;;;;5041619;28;20432;-73
2023/10/16 14:53:06;;;;;;;17.60;4.10;;;;;;;;;;5008474;28;20495;-73
2023/10/16 14:55:33;;;;;;;21.48;4.60;;;;;;;;;;5012301;28;20459;-72
2023/10/16 14:58:00;;;;;;;20.27;3.70;;;;;;;;;;5010653;28;20412;-73
2023/10/16 15:00:44;;;;;;;22.10;4.50;;;;;;;;;;5041381;28;20419;-74
2023/10/16 15:03:11;;;;;;;20.20;5.30;;;;;;;;;;5010672;28;20450;-73
2023/10/16 15:05:41;;;;;;;19.70;4.55;;;;;;;;;;5010395;28;20495;-73
2023/10/16 15:08:12;;;;;;;19.50;4.38;;;;;;;;;;5017440;28;20421;-73
2023/10/16 15:10:40;;;;;;;19.60;4.53;;;;;;;;;;4999056;28;20456;-77
2023/10/16 15:13:16;;;;;;;22.98;4.78;;;;;;;;;;5012931;28;20518;-71
2023/10/16 15:15:43;;;;;;;19.25;4.70;;;;;;;;;;5016848;28;20442;-74
2023/10/16 15:18:11;;;;;;;20.42;4.25;;;;;;;;;;5012503;28;20893;-73
2023/10/16 15:20:39;;;;;;;22.73;4.70;;;;;;;;;;5013627;28;20419;-72
2023/10/16 15:23:06;;;;;;;17.73;3.80;;;;;;;;;;5029084;28;21055;-73
2023/10/16 15:25:34;;;;;;;18.87;3.50;;;;;;;;;;5045439;28;20499;-74
2023/10/16 15:28:02;;;;;;;17.33;3.00;;;;;;;;;;5011841;28;20413;-72
2023/10/16 15:30:29;;;;;;;20.08;2.92;;;;;;;;;;5043176;28;20409;-73
2023/10/16 15:32:58;;;;;;;20.95;4.53;;;;;;;;;;5042907;28;20430;-74
2023/10/16 15:35:25;;;;;;;20.52;4.05;;;;;;;;;;5011090;28;20423;-75
2023/10/16 15:37:51;;;;;;;19.08;4.63;;;;;;;;;;5013478;28;20412;-72
2023/10/16 15:40:20;;;;;;;20.15;5.30;;;;;;;;;;5013626;28;20451;-73
2023/10/16 15:42:49;;;;;;;37.45;14.48;;;;;;;;;;5012111;28;20427;-74
2023/10/16 15:45:16;;;;;;;38.17;15.90;;;;;;;;;;5000884;28;20419;-76
2023/10/16 15:47:44;;;;;;;26.27;7.93;;;;;;;;;;5009748;28;20519;-73
2023/10/16 15:50:11;;;;;;;21.88;6.60;;;;;;;;;;5012147;28;20500;-74
2023/10/16 15:52:38;;;;;;;19.60;5.00;;;;;;;;;;5033640;28;20475;-74
2023/10/16 15:55:05;;;;;;;36.20;14.93;;;;;;;;;;5012365;28;20995;-72
2023/10/16 15:57:34;;;;;;;52.25;20.92;;;;;;;;;;5012986;28;20428;-71
2023/10/16 16:00:04;;;;;;;31.85;10.27;;;;;;;;;;5012336;28;20507;-73
2023/10/16 16:02:37;;;;;;;21.77;5.80;;;;;;;;;;5016481;28;20408;-72
2023/10/16 16:05:04;;;;;;;22.52;7.18;;;;;;;;;;5012827;28;20913;-72
2023/10/16 16:07:31;;;;;;;26.67;9.90;;;;;;;;;;5032597;28;20409;-73
2023/10/16 16:09:59;;;;;;;36.30;13.00;;;;;;;;;;5012929;28;20486;-74
2023/10/16 16:12:26;;;;;;;39.25;13.02;;;;;;;;;;5028089;28;20423;-74
2023/10/16 16:14:52;;;;;;;46.13;19.27;;;;;;;;;;5026960;28;20422;-73
2023/10/16 16:17:23;;;;;;;31.57;11.23;;;;;;;;;;5013026;28;20958;-75
2023/10/16 16:19:49;;;;;;;38.15;13.75;;;;;;;;;;5014495;28;20453;-72
2023/10/16 16:22:16;;;;;;;32.92;8.80;;;;;;;;;;5011839;28;20456;-71
2023/10/16 16:24:44;;;;;;;61.55;25.40;;;;;;;;;;5026645;28;20524;-74
2023/10/16 16:27:11;;;;;;;41.93;18.53;;;;;;;;;;5012556;28;20492;-74
2023/10/16 16:29:37;;;;;;;32.28;11.15;;;;;;;;;;5012673;28;20416;-74
2023/10/16 16:32:04;;;;;;;25.58;6.30;;;;;;;;;;5011656;28;20412;-74
2023/10/16 16:34:32;;;;;;;23.38;6.35;;;;;;;;;;5011782;28;20495;-71
2023/10/16 16:36:59;;;;;;;25.60;6.63;;;;;;;;;;5011056;28;20428;-73
2023/10/16 16:39:28;;;;;;;27.40;8.52;;;;;;;;;;5012414;28;20412;-73
2023/10/16 16:41:58;;;;;;;30.27;9.43;;;;;;;;;;5011834;28;20885;-73
2023/10/16 16:44:24;;;;;;;28.70;11.23;;;;;;;;;;5012543;28;20448;-72
2023/10/16 16:46:51;;;;;;;28.77;11.20;;;;;;;;;;5011004;28;20549;-74
2023/10/16 16:49:18;;;;;;;29.55;11.43;;;;;;;;;;5012180;28;20491;-72
2023/10/16 16:51:47;;;;;;;29.10;11.15;;;;;;;;;;5002930;28;20428;-73
2023/10/16 16:54:14;;;;;;;31.30;11.18;;;;;;;;;;5012146;28;20440;-74
2023/10/16 16:56:41;;;;;;;32.15;10.63;;;;;;;;;;5044441;28;20424;-73
2023/10/16 16:59:09;;;;;;;30.50;10.30;;;;;;;;;;4995696;28;20992;-73
2023/10/16 17:01:36;;;;;;;30.88;11.20;;;;;;;;;;5043047;28;20410;-75
2023/10/16 17:04:03;;;;;;;32.92;11.88;;;;;;;;;;5001200;28;20465;-73
2023/10/16 17:06:30;;;;;;;35.25;13.93;;;;;;;;;;5013567;28;20405;-73
2023/10/16 17:08:59;;;;;;;48.22;21.27;;;;;;;;;;5013338;28;20520;-73
2023/10/16 17:11:26;;;;;;;64.63;30.58;;;;;;;;;;5012063;28;20423;-72
2023/10/16 17:13:53;;;;;;;52.90;24.90;;;;;;;;;;5010708;28;20520;-74
2023/10/16 17:16:20;;;;;;;46.10;22.25;;;;;;;;;;5043663;28;20448;-73
2023/10/16 17:18:48;;;;;;;42.03;19.67;;;;;;;;;;5010858;28;20432;-72